Republican, Arkansas
Current Conditions -  °F | °C
As of 5:58 PM on Friday 28 Nov 2014 (Local Time) from KLRF Reporting Station
Clear Clear  
Wind Chill: 49°   Ceiling: Unl
Heat Index: 49°   Visibility: 10mi
Dew Point: 36°   Wind: 2mph
Humidity: 59%   Direction: 150°SSE
Pressure: 30.09"   Gusts: NA
Location:  35.2494°N, 92.313°W
Report Text: KLRF 282358Z AUTO 15002KT 10SM CLR 10/02 A3009 RMK AO2 SLP194 T00970020 10146 20097 57012 $
Loading
Personal Weather Stations






























Interactive Weather Map New forecast layout! Learn more

10-Day Weather Forecast

Advertisements
Track Severe Weather on mobile